sensor_id;sensor_type;location;lat;lon;timestamp;temperature;humidity
1259;DHT22;619;51.472;6.628;2023-05-07T00:00:16;21.90;79.00
1259;DHT22;619;51.472;6.628;2023-05-07T00:02:47;21.90;79.10
1259;DHT22;619;51.472;6.628;2023-05-07T00:05:13;21.80;79.00
1259;DHT22;619;51.472;6.628;2023-05-07T00:07:38;21.80;79.20
1259;DHT22;619;51.472;6.628;2023-05-07T00:10:05;21.80;79.50
1259;DHT22;619;51.472;6.628;2023-05-07T00:12:34;21.80;79.50
1259;DHT22;619;51.472;6.628;2023-05-07T00:15:03;21.80;79.40
1259;DHT22;619;51.472;6.628;2023-05-07T00:17:32;21.80;79.40
1259;DHT22;619;51.472;6.628;2023-05-07T00:19:58;21.80;79.30
1259;DHT22;619;51.472;6.628;2023-05-07T00:22:23;21.80;79.40
1259;DHT22;619;51.472;6.628;2023-05-07T00:24:49;21.80;79.40
1259;DHT22;619;51.472;6.628;2023-05-07T00:27:17;21.80;79.20
1259;DHT22;619;51.472;6.628;2023-05-07T00:29:42;21.80;79.30
1259;DHT22;619;51.472;6.628;2023-05-07T00:32:10;21.80;79.30
1259;DHT22;619;51.472;6.628;2023-05-07T00:34:38;21.70;79.20
1259;DHT22;619;51.472;6.628;2023-05-07T00:37:07;21.70;79.30
1259;DHT22;619;51.472;6.628;2023-05-07T00:39:35;21.70;79.50
1259;DHT22;619;51.472;6.628;2023-05-07T00:42:01;21.70;79.60
1259;DHT22;619;51.472;6.628;2023-05-07T00:44:29;21.60;79.70
1259;DHT22;619;51.472;6.628;2023-05-07T00:46:56;21.60;79.70
1259;DHT22;619;51.472;6.628;2023-05-07T00:49:26;21.60;79.80
1259;DHT22;619;51.472;6.628;2023-05-07T00:51:57;21.60;79.60
1259;DHT22;619;51.472;6.628;2023-05-07T00:54:23;21.70;80.40
1259;DHT22;619;51.472;6.628;2023-05-07T00:56:48;21.70;79.60
1259;DHT22;619;51.472;6.628;2023-05-07T00:59:14;21.60;79.50
1259;DHT22;619;51.472;6.628;2023-05-07T01:01:43;21.70;79.60
1259;DHT22;619;51.472;6.628;2023-05-07T01:04:08;21.60;80.40
1259;DHT22;619;51.472;6.628;2023-05-07T01:06:34;21.60;79.60
1259;DHT22;619;51.472;6.628;2023-05-07T01:09:04;21.70;79.70
1259;DHT22;619;51.472;6.628;2023-05-07T01:11:30;21.70;79.60
1259;DHT22;619;51.472;6.628;2023-05-07T01:14:00;21.70;79.60
1259;DHT22;619;51.472;6.628;2023-05-07T01:16:30;21.60;79.50
1259;DHT22;619;51.472;6.628;2023-05-07T01:19:01;21.60;79.50
1259;DHT22;619;51.472;6.628;2023-05-07T01:21:26;21.60;79.50
1259;DHT22;619;51.472;6.628;2023-05-07T01:23:56;21.50;79.40
1259;DHT22;619;51.472;6.628;2023-05-07T01:26:24;21.50;79.40
1259;DHT22;619;51.472;6.628;2023-05-07T01:28:53;21.50;79.50
1259;DHT22;619;51.472;6.628;2023-05-07T01:31:21;21.50;79.50
1259;DHT22;619;51.472;6.628;2023-05-07T01:33:52;21.40;79.50
1259;DHT22;619;51.472;6.628;2023-05-07T01:36:23;21.40;79.50
1259;DHT22;619;51.472;6.628;2023-05-07T01:38:51;21.40;79.50
1259;DHT22;619;51.472;6.628;2023-05-07T01:41:18;21.40;79.60
1259;DHT22;619;51.472;6.628;2023-05-07T01:43:46;21.40;79.70
1259;DHT22;619;51.472;6.628;2023-05-07T01:46:12;21.30;79.60
1259;DHT22;619;51.472;6.628;2023-05-07T01:48:41;21.30;79.70
1259;DHT22;619;51.472;6.628;2023-05-07T01:51:08;21.30;79.80
1259;DHT22;619;51.472;6.628;2023-05-07T01:53:37;21.30;79.80
1259;DHT22;619;51.472;6.628;2023-05-07T01:56:03;21.30;79.90
1259;DHT22;619;51.472;6.628;2023-05-07T01:58:31;21.30;80.00
1259;DHT22;619;51.472;6.628;2023-05-07T02:00:57;21.30;80.00
1259;DHT22;619;51.472;6.628;2023-05-07T02:03:25;21.20;79.90
1259;DHT22;619;51.472;6.628;2023-05-07T02:05:51;21.30;80.00
1259;DHT22;619;51.472;6.628;2023-05-07T02:08:16;21.30;80.00
1259;DHT22;619;51.472;6.628;2023-05-07T02:10:42;21.20;80.00
1259;DHT22;619;51.472;6.628;2023-05-07T02:13:10;21.30;80.10
1259;DHT22;619;51.472;6.628;2023-05-07T02:15:38;21.30;80.20
1259;DHT22;619;51.472;6.628;2023-05-07T02:18:10;21.30;80.20
1259;DHT22;619;51.472;6.628;2023-05-07T02:20:35;21.20;80.20
1259;DHT22;619;51.472;6.628;2023-05-07T02:23:01;21.30;80.30
1259;DHT22;619;51.472;6.628;2023-05-07T02:25:27;21.30;80.30
1259;DHT22;619;51.472;6.628;2023-05-07T02:27:57;21.30;80.30
1259;DHT22;619;51.472;6.628;2023-05-07T02:30:26;21.30;80.30
1259;DHT22;619;51.472;6.628;2023-05-07T02:32:56;21.30;80.30
1259;DHT22;619;51.472;6.628;2023-05-07T02:35:24;21.30;80.40
1259;DHT22;619;51.472;6.628;2023-05-07T02:37:50;21.30;80.60
1259;DHT22;619;51.472;6.628;2023-05-07T02:40:15;21.20;80.50
1259;DHT22;619;51.472;6.628;2023-05-07T02:42:41;21.20;80.60
1259;DHT22;619;51.472;6.628;2023-05-07T02:45:07;21.10;80.60
1259;DHT22;619;51.472;6.628;2023-05-07T02:47:33;21.10;80.60
1259;DHT22;619;51.472;6.628;2023-05-07T02:49:58;21.10;80.60
1259;DHT22;619;51.472;6.628;2023-05-07T02:52:24;21.20;80.80
1259;DHT22;619;51.472;6.628;2023-05-07T02:54:49;21.10;80.70
1259;DHT22;619;51.472;6.628;2023-05-07T02:57:15;21.10;80.80
1259;DHT22;619;51.472;6.628;2023-05-07T02:59:42;21.10;80.90
1259;DHT22;619;51.472;6.628;2023-05-07T03:02:07;21.00;80.90
1259;DHT22;619;51.472;6.628;2023-05-07T03:04:33;21.00;81.00
1259;DHT22;619;51.472;6.628;2023-05-07T03:06:58;21.00;81.20
1259;DHT22;619;51.472;6.628;2023-05-07T03:09:26;20.90;81.20
1259;DHT22;619;51.472;6.628;2023-05-07T03:11:52;20.90;81.30
1259;DHT22;619;51.472;6.628;2023-05-07T03:14:20;20.90;81.40
1259;DHT22;619;51.472;6.628;2023-05-07T03:16:45;20.90;81.50
1259;DHT22;619;51.472;6.628;2023-05-07T03:19:11;21.00;81.50
1259;DHT22;619;51.472;6.628;2023-05-07T03:21:36;20.90;81.20
1259;DHT22;619;51.472;6.628;2023-05-07T03:24:02;21.00;81.30
1259;DHT22;619;51.472;6.628;2023-05-07T03:26:30;21.00;81.30
1259;DHT22;619;51.472;6.628;2023-05-07T03:28:58;21.00;81.20
1259;DHT22;619;51.472;6.628;2023-05-07T03:31:24;21.00;81.00
1259;DHT22;619;51.472;6.628;2023-05-07T03:33:54;21.00;81.00
1259;DHT22;619;51.472;6.628;2023-05-07T03:36:23;21.00;80.90
1259;DHT22;619;51.472;6.628;2023-05-07T03:38:49;21.10;80.90
1259;DHT22;619;51.472;6.628;2023-05-07T03:41:15;21.00;80.70
1259;DHT22;619;51.472;6.628;2023-05-07T03:43:41;21.10;80.70
1259;DHT22;619;51.472;6.628;2023-05-07T03:46:11;21.10;80.60
1259;DHT22;619;51.472;6.628;2023-05-07T03:48:36;21.10;80.60
1259;DHT22;619;51.472;6.628;2023-05-07T03:51:02;21.10;80.50
1259;DHT22;619;51.472;6.628;2023-05-07T03:53:30;21.10;80.50
1259;DHT22;619;51.472;6.628;2023-05-07T03:55:56;21.10;80.40
1259;DHT22;619;51.472;6.628;2023-05-07T03:58:21;21.10;80.40
1259;DHT22;619;51.472;6.628;2023-05-07T04:00:47;21.00;80.40
1259;DHT22;619;51.472;6.628;2023-05-07T04:03:15;21.00;80.40
1259;DHT22;619;51.472;6.628;2023-05-07T04:05:40;21.00;80.40
1259;DHT22;619;51.472;6.628;2023-05-07T04:08:07;21.00;80.40
1259;DHT22;619;51.472;6.628;2023-05-07T04:10:34;21.00;80.50
1259;DHT22;619;51.472;6.628;2023-05-07T04:13:00;21.00;80.70
1259;DHT22;619;51.472;6.628;2023-05-07T04:15:26;21.00;80.80
1259;DHT22;619;51.472;6.628;2023-05-07T04:17:51;21.00;80.80
1259;DHT22;619;51.472;6.628;2023-05-07T04:20:19;21.00;80.70
1259;DHT22;619;51.472;6.628;2023-05-07T04:22:45;20.90;80.70
1259;DHT22;619;51.472;6.628;2023-05-07T04:25:13;20.90;81.40
1259;DHT22;619;51.472;6.628;2023-05-07T04:27:39;20.90;80.70
1259;DHT22;619;51.472;6.628;2023-05-07T04:30:05;20.90;80.70
1259;DHT22;619;51.472;6.628;2023-05-07T04:32:33;20.90;80.80
1259;DHT22;619;51.472;6.628;2023-05-07T04:34:59;20.90;80.90
1259;DHT22;619;51.472;6.628;2023-05-07T04:37:27;20.90;80.90
1259;DHT22;619;51.472;6.628;2023-05-07T04:39:52;20.90;81.20
1259;DHT22;619;51.472;6.628;2023-05-07T04:42:18;20.90;80.90
1259;DHT22;619;51.472;6.628;2023-05-07T04:44:47;20.90;80.90
1259;DHT22;619;51.472;6.628;2023-05-07T04:47:12;20.90;80.90
1259;DHT22;619;51.472;6.628;2023-05-07T04:49:38;21.00;80.90
1259;DHT22;619;51.472;6.628;2023-05-07T04:52:04;20.90;80.70
1259;DHT22;619;51.472;6.628;2023-05-07T04:54:32;20.90;80.70
1259;DHT22;619;51.472;6.628;2023-05-07T04:56:57;21.00;80.70
1259;DHT22;619;51.472;6.628;2023-05-07T04:59:25;20.90;80.60
1259;DHT22;619;51.472;6.628;2023-05-07T05:01:51;21.00;80.80
1259;DHT22;619;51.472;6.628;2023-05-07T05:04:19;21.00;80.80
1259;DHT22;619;51.472;6.628;2023-05-07T05:06:47;21.00;80.90
1259;DHT22;619;51.472;6.628;2023-05-07T05:09:12;21.00;81.00
1259;DHT22;619;51.472;6.628;2023-05-07T05:11:38;21.00;81.00
1259;DHT22;619;51.472;6.628;2023-05-07T05:14:04;21.00;80.90
1259;DHT22;619;51.472;6.628;2023-05-07T05:16:29;21.00;80.90
1259;DHT22;619;51.472;6.628;2023-05-07T05:18:58;21.10;81.00
1259;DHT22;619;51.472;6.628;2023-05-07T05:21:23;21.10;81.90
1259;DHT22;619;51.472;6.628;2023-05-07T05:23:54;21.10;81.30
1259;DHT22;619;51.472;6.628;2023-05-07T05:26:19;21.10;81.30
1259;DHT22;619;51.472;6.628;2023-05-07T05:28:46;21.20;81.40
1259;DHT22;619;51.472;6.628;2023-05-07T05:31:12;21.30;81.50
1259;DHT22;619;51.472;6.628;2023-05-07T05:33:40;21.30;81.40
1259;DHT22;619;51.472;6.628;2023-05-07T05:36:06;21.40;81.30
1259;DHT22;619;51.472;6.628;2023-05-07T05:38:34;21.50;81.20
1259;DHT22;619;51.472;6.628;2023-05-07T05:40:59;21.60;81.20
1259;DHT22;619;51.472;6.628;2023-05-07T05:43:28;21.60;81.00
1259;DHT22;619;51.472;6.628;2023-05-07T05:45:54;21.70;81.00
1259;DHT22;619;51.472;6.628;2023-05-07T05:48:24;21.90;80.90
1259;DHT22;619;51.472;6.628;2023-05-07T05:50:52;22.00;80.90
1259;DHT22;619;51.472;6.628;2023-05-07T05:53:17;22.10;80.70
1259;DHT22;619;51.472;6.628;2023-05-07T05:55:43;22.20;80.50
1259;DHT22;619;51.472;6.628;2023-05-07T05:58:09;22.30;81.10
1259;DHT22;619;51.472;6.628;2023-05-07T06:00:37;22.30;80.00
1259;DHT22;619;51.472;6.628;2023-05-07T06:03:03;22.50;80.00
1259;DHT22;619;51.472;6.628;2023-05-07T06:05:28;22.60;80.00
1259;DHT22;619;51.472;6.628;2023-05-07T06:07:54;22.60;79.60
1259;DHT22;619;51.472;6.628;2023-05-07T06:10:22;22.70;79.30
1259;DHT22;619;51.472;6.628;2023-05-07T06:12:47;22.80;79.10
1259;DHT22;619;51.472;6.628;2023-05-07T06:15:17;23.00;79.00
1259;DHT22;619;51.472;6.628;2023-05-07T06:17:48;23.10;78.60
1259;DHT22;619;51.472;6.628;2023-05-07T06:20:17;23.20;78.10
1259;DHT22;619;51.472;6.628;2023-05-07T06:22:45;23.30;77.40
1259;DHT22;619;51.472;6.628;2023-05-07T06:25:13;23.40;77.10
1259;DHT22;619;51.472;6.628;2023-05-07T06:27:39;23.40;76.20
1259;DHT22;619;51.472;6.628;2023-05-07T06:30:06;23.40;75.70
1259;DHT22;619;51.472;6.628;2023-05-07T06:32:31;23.50;76.00
1259;DHT22;619;51.472;6.628;2023-05-07T06:34:57;23.50;75.70
1259;DHT22;619;51.472;6.628;2023-05-07T06:37:23;23.50;75.00
1259;DHT22;619;51.472;6.628;2023-05-07T06:39:48;23.60;75.30
1259;DHT22;619;51.472;6.628;2023-05-07T06:42:14;23.60;75.40
1259;DHT22;619;51.472;6.628;2023-05-07T06:44:42;23.70;75.10
1259;DHT22;619;51.472;6.628;2023-05-07T06:47:12;23.80;74.90
1259;DHT22;619;51.472;6.628;2023-05-07T06:49:38;23.90;74.00
1259;DHT22;619;51.472;6.628;2023-05-07T06:52:06;23.90;73.70
1259;DHT22;619;51.472;6.628;2023-05-07T06:54:31;23.90;73.40
1259;DHT22;619;51.472;6.628;2023-05-07T06:56:57;23.90;73.10
1259;DHT22;619;51.472;6.628;2023-05-07T06:59:26;23.90;73.60
1259;DHT22;619;51.472;6.628;2023-05-07T07:01:56;23.90;73.80
1259;DHT22;619;51.472;6.628;2023-05-07T07:04:24;24.00;74.10
1259;DHT22;619;51.472;6.628;2023-05-07T07:06:53;24.00;73.20
1259;DHT22;619;51.472;6.628;2023-05-07T07:09:24;24.10;73.10
1259;DHT22;619;51.472;6.628;2023-05-07T07:11:52;24.10;72.80
1259;DHT22;619;51.472;6.628;2023-05-07T07:14:20;24.20;72.60
1259;DHT22;619;51.472;6.628;2023-05-07T07:16:45;24.30;72.50
1259;DHT22;619;51.472;6.628;2023-05-07T07:19:13;24.40;71.90
1259;DHT22;619;51.472;6.628;2023-05-07T07:21:41;24.50;71.50
1259;DHT22;619;51.472;6.628;2023-05-07T07:24:06;24.60;71.60
1259;DHT22;619;51.472;6.628;2023-05-07T07:26:34;24.70;71.30
1259;DHT22;619;51.472;6.628;2023-05-07T07:29:05;24.80;71.20
1259;DHT22;619;51.472;6.628;2023-05-07T07:31:30;25.00;70.50
1259;DHT22;619;51.472;6.628;2023-05-07T07:33:56;25.20;70.10
1259;DHT22;619;51.472;6.628;2023-05-07T07:36:22;25.40;69.40
1259;DHT22;619;51.472;6.628;2023-05-07T07:38:47;25.60;68.60
1259;DHT22;619;51.472;6.628;2023-05-07T07:41:15;25.50;66.60
1259;DHT22;619;51.472;6.628;2023-05-07T07:43:43;25.50;66.00
1259;DHT22;619;51.472;6.628;2023-05-07T07:46:13;25.40;66.20
1259;DHT22;619;51.472;6.628;2023-05-07T07:48:39;25.40;67.40
1259;DHT22;619;51.472;6.628;2023-05-07T07:51:09;25.50;68.40
1259;DHT22;619;51.472;6.628;2023-05-07T07:53:39;25.70;68.10
1259;DHT22;619;51.472;6.628;2023-05-07T07:56:09;25.90;67.50
1259;DHT22;619;51.472;6.628;2023-05-07T07:58:37;26.10;66.70
1259;DHT22;619;51.472;6.628;2023-05-07T08:01:03;26.20;65.20
1259;DHT22;619;51.472;6.628;2023-05-07T08:03:31;26.40;65.00
1259;DHT22;619;51.472;6.628;2023-05-07T08:05:57;26.50;64.60
1259;DHT22;619;51.472;6.628;2023-05-07T08:08:25;26.70;64.20
1259;DHT22;619;51.472;6.628;2023-05-07T08:10:53;26.90;63.70
1259;DHT22;619;51.472;6.628;2023-05-07T08:13:19;27.00;63.00
1259;DHT22;619;51.472;6.628;2023-05-07T08:15:47;27.00;62.30
1259;DHT22;619;51.472;6.628;2023-05-07T08:18:13;27.00;62.50
1259;DHT22;619;51.472;6.628;2023-05-07T08:20:43;27.00;62.70
1259;DHT22;619;51.472;6.628;2023-05-07T08:23:11;27.00;62.00
1259;DHT22;619;51.472;6.628;2023-05-07T08:25:39;27.00;62.60
1259;DHT22;619;51.472;6.628;2023-05-07T08:28:08;27.10;62.80
1259;DHT22;619;51.472;6.628;2023-05-07T08:30:33;27.10;62.10
1259;DHT22;619;51.472;6.628;2023-05-07T08:33:00;27.20;62.10
1259;DHT22;619;51.472;6.628;2023-05-07T08:35:27;27.20;62.10
1259;DHT22;619;51.472;6.628;2023-05-07T08:37:53;27.20;62.20
1259;DHT22;619;51.472;6.628;2023-05-07T08:40:20;27.40;61.20
1259;DHT22;619;51.472;6.628;2023-05-07T08:42:48;27.40;60.60
1259;DHT22;619;51.472;6.628;2023-05-07T08:45:15;27.40;60.70
1259;DHT22;619;51.472;6.628;2023-05-07T08:47:47;27.60;60.60
1259;DHT22;619;51.472;6.628;2023-05-07T08:50:14;27.60;60.30
1259;DHT22;619;51.472;6.628;2023-05-07T08:52:45;27.70;60.20
1259;DHT22;619;51.472;6.628;2023-05-07T08:55:11;27.80;59.50
1259;DHT22;619;51.472;6.628;2023-05-07T08:57:38;27.90;59.20
1259;DHT22;619;51.472;6.628;2023-05-07T09:00:04;28.00;58.70
1259;DHT22;619;51.472;6.628;2023-05-07T09:02:32;28.00;58.30
1259;DHT22;619;51.472;6.628;2023-05-07T09:05:01;28.00;58.50
1259;DHT22;619;51.472;6.628;2023-05-07T09:07:30;28.10;58.70
1259;DHT22;619;51.472;6.628;2023-05-07T09:09:58;28.20;58.60
1259;DHT22;619;51.472;6.628;2023-05-07T09:12:26;28.30;58.40
1259;DHT22;619;51.472;6.628;2023-05-07T09:14:51;28.50;58.50
1259;DHT22;619;51.472;6.628;2023-05-07T09:17:17;28.70;58.40
1259;DHT22;619;51.472;6.628;2023-05-07T09:19:46;28.90;58.30
1259;DHT22;619;51.472;6.628;2023-05-07T09:22:12;29.10;56.90
1259;DHT22;619;51.472;6.628;2023-05-07T09:24:38;29.30;55.40
1259;DHT22;619;51.472;6.628;2023-05-07T09:27:04;29.50;55.60
1259;DHT22;619;51.472;6.628;2023-05-07T09:29:33;29.60;55.60
1259;DHT22;619;51.472;6.628;2023-05-07T09:32:07;29.80;55.60
1259;DHT22;619;51.472;6.628;2023-05-07T09:34:34;29.90;55.20
1259;DHT22;619;51.472;6.628;2023-05-07T09:37:04;30.10;55.30
1259;DHT22;619;51.472;6.628;2023-05-07T09:39:44;30.30;55.20
1259;DHT22;619;51.472;6.628;2023-05-07T09:42:11;30.40;54.30
1259;DHT22;619;51.472;6.628;2023-05-07T09:44:38;30.50;54.10
1259;DHT22;619;51.472;6.628;2023-05-07T09:47:07;30.50;52.50
1259;DHT22;619;51.472;6.628;2023-05-07T09:49:38;30.50;52.20
1259;DHT22;619;51.472;6.628;2023-05-07T09:52:06;30.60;52.80
1259;DHT22;619;51.472;6.628;2023-05-07T09:54:36;30.60;53.80
1259;DHT22;619;51.472;6.628;2023-05-07T09:57:04;30.40;52.70
1259;DHT22;619;51.472;6.628;2023-05-07T09:59:32;30.10;53.80
1259;DHT22;619;51.472;6.628;2023-05-07T10:01:59;30.00;54.00
1259;DHT22;619;51.472;6.628;2023-05-07T10:04:28;29.90;55.30
1259;DHT22;619;51.472;6.628;2023-05-07T10:06:54;29.90;54.90
1259;DHT22;619;51.472;6.628;2023-05-07T10:09:21;29.90;55.20
1259;DHT22;619;51.472;6.628;2023-05-07T10:11:48;30.00;54.20
1259;DHT22;619;51.472;6.628;2023-05-07T10:14:20;30.10;55.50
1259;DHT22;619;51.472;6.628;2023-05-07T10:16:47;30.40;54.10
1259;DHT22;619;51.472;6.628;2023-05-07T10:19:16;30.50;53.30
1259;DHT22;619;51.472;6.628;2023-05-07T10:21:54;30.60;52.70
1259;DHT22;619;51.472;6.628;2023-05-07T10:24:26;30.60;53.20
1259;DHT22;619;51.472;6.628;2023-05-07T10:26:53;30.70;53.30
1259;DHT22;619;51.472;6.628;2023-05-07T10:32:48;31.10;52.20
1259;DHT22;619;51.472;6.628;2023-05-07T10:35:24;31.20;51.30
1259;DHT22;619;51.472;6.628;2023-05-07T10:37:56;31.20;52.60
1259;DHT22;619;51.472;6.628;2023-05-07T10:40:26;31.10;52.00
1259;DHT22;619;51.472;6.628;2023-05-07T10:42:56;31.10;52.20
1259;DHT22;619;51.472;6.628;2023-05-07T10:45:22;31.10;51.90
1259;DHT22;619;51.472;6.628;2023-05-07T10:48:15;31.10;51.30
1259;DHT22;619;51.472;6.628;2023-05-07T10:50:45;31.00;51.40
1259;DHT22;619;51.472;6.628;2023-05-07T10:55:49;30.90;53.10
1259;DHT22;619;51.472;6.628;2023-05-07T11:00:49;31.10;52.20
1259;DHT22;619;51.472;6.628;2023-05-07T11:03:15;31.20;51.10
1259;DHT22;619;51.472;6.628;2023-05-07T11:05:41;31.10;50.50
1259;DHT22;619;51.472;6.628;2023-05-07T11:08:09;31.10;51.60
1259;DHT22;619;51.472;6.628;2023-05-07T11:10:56;31.10;51.70
1259;DHT22;619;51.472;6.628;2023-05-07T11:13:43;31.20;51.80
1259;DHT22;619;51.472;6.628;2023-05-07T11:16:19;31.30;51.90
1259;DHT22;619;51.472;6.628;2023-05-07T11:21:35;31.30;52.00
1259;DHT22;619;51.472;6.628;2023-05-07T11:24:02;31.40;51.60
1259;DHT22;619;51.472;6.628;2023-05-07T11:26:31;31.50;52.20
1259;DHT22;619;51.472;6.628;2023-05-07T11:29:00;31.60;51.90
1259;DHT22;619;51.472;6.628;2023-05-07T11:31:27;31.70;51.80
1259;DHT22;619;51.472;6.628;2023-05-07T11:33:54;31.80;51.60
1259;DHT22;619;51.472;6.628;2023-05-07T11:36:23;31.80;50.50
1259;DHT22;619;51.472;6.628;2023-05-07T11:38:51;31.70;50.20
1259;DHT22;619;51.472;6.628;2023-05-07T11:41:17;31.60;50.50
1259;DHT22;619;51.472;6.628;2023-05-07T11:43:59;31.50;50.60
1259;DHT22;619;51.472;6.628;2023-05-07T11:46:28;31.30;51.00
1259;DHT22;619;51.472;6.628;2023-05-07T11:48:54;31.20;52.30
1259;DHT22;619;51.472;6.628;2023-05-07T11:51:24;31.10;51.90
1259;DHT22;619;51.472;6.628;2023-05-07T11:53:51;31.00;51.10
1259;DHT22;619;51.472;6.628;2023-05-07T11:56:17;30.80;51.80
1259;DHT22;619;51.472;6.628;2023-05-07T11:58:47;30.70;51.90
1259;DHT22;619;51.472;6.628;2023-05-07T12:01:15;30.70;52.10
1259;DHT22;619;51.472;6.628;2023-05-07T12:03:43;30.70;52.50
1259;DHT22;619;51.472;6.628;2023-05-07T12:06:12;30.60;52.90
1259;DHT22;619;51.472;6.628;2023-05-07T12:08:41;30.60;52.60
1259;DHT22;619;51.472;6.628;2023-05-07T12:11:09;30.50;52.90
1259;DHT22;619;51.472;6.628;2023-05-07T12:13:36;30.50;52.70
1259;DHT22;619;51.472;6.628;2023-05-07T12:16:02;30.50;53.00
1259;DHT22;619;51.472;6.628;2023-05-07T12:18:29;30.60;52.70
1259;DHT22;619;51.472;6.628;2023-05-07T12:20:55;30.50;51.90
1259;DHT22;619;51.472;6.628;2023-05-07T12:23:26;30.40;51.60
1259;DHT22;619;51.472;6.628;2023-05-07T12:25:51;30.40;51.90
1259;DHT22;619;51.472;6.628;2023-05-07T12:28:18;30.40;52.10
1259;DHT22;619;51.472;6.628;2023-05-07T12:30:48;30.30;52.10
1259;DHT22;619;51.472;6.628;2023-05-07T12:33:25;30.30;52.70
1259;DHT22;619;51.472;6.628;2023-05-07T12:35:53;30.10;51.80
1259;DHT22;619;51.472;6.628;2023-05-07T12:38:19;29.90;52.20
1259;DHT22;619;51.472;6.628;2023-05-07T12:40:54;29.80;53.10
1259;DHT22;619;51.472;6.628;2023-05-07T12:43:20;29.70;53.30
1259;DHT22;619;51.472;6.628;2023-05-07T12:45:51;29.60;52.90
1259;DHT22;619;51.472;6.628;2023-05-07T12:48:17;29.60;53.80
1259;DHT22;619;51.472;6.628;2023-05-07T12:50:44;29.60;53.50
1259;DHT22;619;51.472;6.628;2023-05-07T12:53:11;29.70;53.60
1259;DHT22;619;51.472;6.628;2023-05-07T12:55:59;29.80;53.70
1259;DHT22;619;51.472;6.628;2023-05-07T12:58:29;29.90;53.00
1259;DHT22;619;51.472;6.628;2023-05-07T13:00:57;30.00;51.90
1259;DHT22;619;51.472;6.628;2023-05-07T13:05:59;30.10;51.40
1259;DHT22;619;51.472;6.628;2023-05-07T13:08:26;30.10;51.00
1259;DHT22;619;51.472;6.628;2023-05-07T13:10:52;30.10;51.60
1259;DHT22;619;51.472;6.628;2023-05-07T13:13:19;30.20;51.80
1259;DHT22;619;51.472;6.628;2023-05-07T13:15:48;30.20;51.40
1259;DHT22;619;51.472;6.628;2023-05-07T13:18:13;30.20;51.70
1259;DHT22;619;51.472;6.628;2023-05-07T13:20:39;30.10;51.70
1259;DHT22;619;51.472;6.628;2023-05-07T13:23:05;30.00;51.90
1259;DHT22;619;51.472;6.628;2023-05-07T13:25:30;29.90;51.60
1259;DHT22;619;51.472;6.628;2023-05-07T13:27:59;29.80;51.70
1259;DHT22;619;51.472;6.628;2023-05-07T13:30:28;29.70;52.20
1259;DHT22;619;51.472;6.628;2023-05-07T13:32:58;29.60;52.60
1259;DHT22;619;51.472;6.628;2023-05-07T13:35:26;29.50;53.10
1259;DHT22;619;51.472;6.628;2023-05-07T13:37:55;29.40;53.70
1259;DHT22;619;51.472;6.628;2023-05-07T13:40:22;29.30;53.90
1259;DHT22;619;51.472;6.628;2023-05-07T13:42:48;29.30;53.80
1259;DHT22;619;51.472;6.628;2023-05-07T13:45:13;29.10;54.40
1259;DHT22;619;51.472;6.628;2023-05-07T13:47:43;29.00;54.90
1259;DHT22;619;51.472;6.628;2023-05-07T13:50:09;28.90;55.10
1259;DHT22;619;51.472;6.628;2023-05-07T13:52:37;28.80;55.40
1259;DHT22;619;51.472;6.628;2023-05-07T13:55:06;28.70;55.40
1259;DHT22;619;51.472;6.628;2023-05-07T13:57:31;28.60;56.00
1259;DHT22;619;51.472;6.628;2023-05-07T14:00:03;28.60;56.10
1259;DHT22;619;51.472;6.628;2023-05-07T14:02:30;28.60;56.20
1259;DHT22;619;51.472;6.628;2023-05-07T14:05:01;28.60;56.90
1259;DHT22;619;51.472;6.628;2023-05-07T14:07:31;28.50;56.70
1259;DHT22;619;51.472;6.628;2023-05-07T14:09:57;28.60;56.90
1259;DHT22;619;51.472;6.628;2023-05-07T14:12:25;28.50;56.40
1259;DHT22;619;51.472;6.628;2023-05-07T14:14:50;28.50;56.90
1259;DHT22;619;51.472;6.628;2023-05-07T14:17:21;28.50;56.80
1259;DHT22;619;51.472;6.628;2023-05-07T14:19:48;28.50;57.10
1259;DHT22;619;51.472;6.628;2023-05-07T14:22:14;28.60;57.20
1259;DHT22;619;51.472;6.628;2023-05-07T14:24:40;28.50;57.30
1259;DHT22;619;51.472;6.628;2023-05-07T14:27:06;28.50;57.40
1259;DHT22;619;51.472;6.628;2023-05-07T14:29:34;28.50;58.00
1259;DHT22;619;51.472;6.628;2023-05-07T14:32:03;28.40;58.60
1259;DHT22;619;51.472;6.628;2023-05-07T14:34:29;28.30;58.10
1259;DHT22;619;51.472;6.628;2023-05-07T14:36:55;28.30;57.90
1259;DHT22;619;51.472;6.628;2023-05-07T14:39:21;28.20;58.10
1259;DHT22;619;51.472;6.628;2023-05-07T14:41:48;28.10;58.00
1259;DHT22;619;51.472;6.628;2023-05-07T14:44:14;28.00;58.50
1259;DHT22;619;51.472;6.628;2023-05-07T14:46:40;28.00;58.60
1259;DHT22;619;51.472;6.628;2023-05-07T14:49:08;27.90;58.80
1259;DHT22;619;51.472;6.628;2023-05-07T14:51:41;27.80;58.80
1259;DHT22;619;51.472;6.628;2023-05-07T14:54:10;27.70;59.00
1259;DHT22;619;51.472;6.628;2023-05-07T14:56:35;27.60;59.10
1259;DHT22;619;51.472;6.628;2023-05-07T14:59:02;27.60;59.70
1259;DHT22;619;51.472;6.628;2023-05-07T15:01:28;27.60;60.50
1259;DHT22;619;51.472;6.628;2023-05-07T15:03:56;27.60;60.90
1259;DHT22;619;51.472;6.628;2023-05-07T15:06:24;27.60;60.60
1259;DHT22;619;51.472;6.628;2023-05-07T15:08:52;27.60;60.50
1259;DHT22;619;51.472;6.628;2023-05-07T15:11:18;27.70;60.90
1259;DHT22;619;51.472;6.628;2023-05-07T15:13:43;27.70;61.20
1259;DHT22;619;51.472;6.628;2023-05-07T15:16:09;27.80;60.70
1259;DHT22;619;51.472;6.628;2023-05-07T15:18:35;27.80;60.70
1259;DHT22;619;51.472;6.628;2023-05-07T15:21:00;27.80;60.90
1259;DHT22;619;51.472;6.628;2023-05-07T15:23:28;27.80;61.00
1259;DHT22;619;51.472;6.628;2023-05-07T15:25:56;27.80;61.00
1259;DHT22;619;51.472;6.628;2023-05-07T15:28:22;27.80;61.00
1259;DHT22;619;51.472;6.628;2023-05-07T15:30:50;27.70;61.10
1259;DHT22;619;51.472;6.628;2023-05-07T15:33:18;27.60;61.00
1259;DHT22;619;51.472;6.628;2023-05-07T15:35:44;27.50;61.30
1259;DHT22;619;51.472;6.628;2023-05-07T15:38:09;27.40;61.60
1259;DHT22;619;51.472;6.628;2023-05-07T15:40:38;27.30;61.80
1259;DHT22;619;51.472;6.628;2023-05-07T15:43:08;27.20;62.40
1259;DHT22;619;51.472;6.628;2023-05-07T15:45:41;27.20;62.20
1259;DHT22;619;51.472;6.628;2023-05-07T15:48:07;27.10;62.40
1259;DHT22;619;51.472;6.628;2023-05-07T15:50:36;27.10;62.80
1259;DHT22;619;51.472;6.628;2023-05-07T15:53:03;27.20;63.10
1259;DHT22;619;51.472;6.628;2023-05-07T15:55:30;27.20;62.50
1259;DHT22;619;51.472;6.628;2023-05-07T15:57:56;27.30;62.80
1259;DHT22;619;51.472;6.628;2023-05-07T16:00:25;27.40;61.90
1259;DHT22;619;51.472;6.628;2023-05-07T16:02:53;27.60;61.90
1259;DHT22;619;51.472;6.628;2023-05-07T16:05:19;27.70;61.50
1259;DHT22;619;51.472;6.628;2023-05-07T16:07:44;27.70;60.70
1259;DHT22;619;51.472;6.628;2023-05-07T16:10:10;27.70;60.50
1259;DHT22;619;51.472;6.628;2023-05-07T16:12:38;27.60;60.90
1259;DHT22;619;51.472;6.628;2023-05-07T16:15:09;27.60;60.90
1259;DHT22;619;51.472;6.628;2023-05-07T16:17:35;27.60;61.20
1259;DHT22;619;51.472;6.628;2023-05-07T16:20:02;27.60;61.70
1259;DHT22;619;51.472;6.628;2023-05-07T16:22:31;27.50;61.60
1259;DHT22;619;51.472;6.628;2023-05-07T16:24:57;27.50;61.60
1259;DHT22;619;51.472;6.628;2023-05-07T16:27:25;27.50;61.90
1259;DHT22;619;51.472;6.628;2023-05-07T16:29:51;27.40;61.50
1259;DHT22;619;51.472;6.628;2023-05-07T16:32:16;27.30;61.70